Time;durP1;ratioP1;P1;durP2;ratioP2;P2;SDS_P1;SDS_P2;PMS_P1;PMS_P2;Temp;Humidity;BMP_temperature;BMP_pressure;BME280_temperature;BME280_humidity;BME280_pressure;Samples;Min_cycle;Max_cycle;Signal;HPM_P1;HPM_P2
2021/07/05 00:00:26;;;;;;;2.13;0.50;;;;;;;;;;4437749;28;20040;-63
2021/07/05 00:02:36;;;;;;;;;;;;;;;;;;4499498;28;20038;-63
2021/07/05 00:04:47;;;;;;;1.42;0.65;;;;;;;;;;4435969;28;19919;-63
2021/07/05 00:06:57;;;;;;;3.27;0.70;;;;;;;;;;4435515;28;20127;-63
2021/07/05 00:09:08;;;;;;;2.43;0.60;;;;;;;;;;4436011;28;20118;-63
2021/07/05 00:11:18;;;;;;;1.97;0.70;;;;;;;;;;4436216;28;20434;-63
2021/07/05 00:13:31;;;;;;;0.60;0.53;;;;;;;;;;4436047;28;20067;-62
2021/07/05 00:15:41;;;;;;;1.98;0.60;;;;;;;;;;4439224;28;20126;-63
2021/07/05 00:17:57;;;;;;;2.50;0.60;;;;;;;;;;4498652;28;20046;-63
2021/07/05 00:20:08;;;;;;;3.05;1.48;;;;;;;;;;4499080;28;20569;-63
2021/07/05 00:22:18;;;;;;;1.83;1.10;;;;;;;;;;4442643;28;20026;-63
2021/07/05 00:24:28;;;;;;;2.90;0.87;;;;;;;;;;4438351;28;20097;-62
2021/07/05 00:26:39;;;;;;;1.50;0.77;;;;;;;;;;4443635;28;20142;-63
2021/07/05 00:28:50;;;;;;;2.13;0.80;;;;;;;;;;4438725;28;20036;-63
2021/07/05 00:31:00;;;;;;;2.23;0.80;;;;;;;;;;4439675;28;20044;-63
2021/07/05 00:33:11;;;;;;;2.23;0.70;;;;;;;;;;4442651;28;20484;-63
2021/07/05 00:35:22;;;;;;;1.75;0.73;;;;;;;;;;4439750;28;20112;-63
2021/07/05 00:37:33;;;;;;;0.50;0.50;;;;;;;;;;4439645;28;20739;-63
2021/07/05 00:39:43;;;;;;;1.50;0.70;;;;;;;;;;4444417;28;20043;-63
2021/07/05 00:41:54;;;;;;;1.53;0.60;;;;;;;;;;4439637;28;20095;-63
2021/07/05 00:44:04;;;;;;;0.97;0.60;;;;;;;;;;4439041;28;20070;-63
2021/07/05 00:46:16;;;;;;;1.40;0.57;;;;;;;;;;4487100;28;20385;-63
2021/07/05 00:48:26;;;;;;;1.33;0.65;;;;;;;;;;4439085;28;20046;-64
2021/07/05 00:50:37;;;;;;;1.30;0.47;;;;;;;;;;4502423;28;20052;-63
2021/07/05 00:52:50;;;;;;;1.55;0.70;;;;;;;;;;4439286;28;20549;-63
2021/07/05 00:55:03;;;;;;;2.28;0.63;;;;;;;;;;4442134;28;20035;-63
2021/07/05 00:57:20;;;;;;;1.23;0.60;;;;;;;;;;4496205;28;20117;-63
2021/07/05 00:59:31;;;;;;;1.00;0.50;;;;;;;;;;4494610;28;20036;-63
2021/07/05 01:01:41;;;;;;;1.42;0.60;;;;;;;;;;4497601;28;20048;-63
2021/07/05 01:03:52;;;;;;;1.60;0.63;;;;;;;;;;4436324;28;20223;-63
2021/07/05 01:06:02;;;;;;;2.53;0.60;;;;;;;;;;4440395;28;20125;-63
2021/07/05 01:08:13;;;;;;;1.13;0.43;;;;;;;;;;4434160;28;20045;-63
2021/07/05 01:10:24;;;;;;;0.87;0.50;;;;;;;;;;4437121;28;20044;-63
2021/07/05 01:12:34;;;;;;;3.33;0.60;;;;;;;;;;4435902;28;20036;-63
2021/07/05 01:14:45;;;;;;;1.77;0.50;;;;;;;;;;4440503;28;20040;-63
2021/07/05 01:16:56;;;;;;;1.73;0.37;;;;;;;;;;4433462;28;20401;-63
2021/07/05 01:19:07;;;;;;;1.38;0.40;;;;;;;;;;4503868;28;20042;-63
2021/07/05 01:21:17;;;;;;;0.93;0.53;;;;;;;;;;4440729;28;20032;-63
2021/07/05 01:23:29;;;;;;;1.60;0.57;;;;;;;;;;4439652;28;20760;-63
2021/07/05 01:25:40;;;;;;;2.58;0.40;;;;;;;;;;4440690;28;20128;-62
2021/07/05 01:27:51;;;;;;;1.08;0.40;;;;;;;;;;4437207;28;20484;-63
2021/07/05 01:30:03;;;;;;;2.95;0.47;;;;;;;;;;4500839;28;20041;-63
2021/07/05 01:32:14;;;;;;;1.10;0.50;;;;;;;;;;4446145;28;20047;-63
2021/07/05 01:34:25;;;;;;;2.60;0.60;;;;;;;;;;4447660;28;20047;-63
2021/07/05 01:36:35;;;;;;;0.57;0.50;;;;;;;;;;4442630;28;20570;-63
2021/07/05 01:38:46;;;;;;;1.50;0.60;;;;;;;;;;4444690;28;20079;-62
2021/07/05 01:41:02;;;;;;;0.30;0.30;;;;;;;;;;4438893;28;20035;-63
2021/07/05 01:43:12;;;;;;;1.40;0.45;;;;;;;;;;4499097;28;20053;-63
2021/07/05 01:45:25;;;;;;;1.50;0.70;;;;;;;;;;4501498;28;20044;-63
2021/07/05 01:47:36;;;;;;;0.43;0.43;;;;;;;;;;4436651;28;20019;-63
2021/07/05 01:49:46;;;;;;;0.97;0.30;;;;;;;;;;4447924;28;20051;-63
2021/07/05 01:51:57;;;;;;;3.80;0.60;;;;;;;;;;4441049;28;20271;-63
2021/07/05 01:54:07;;;;;;;0.90;0.40;;;;;;;;;;4439866;28;20038;-63
2021/07/05 01:56:17;;;;;;;2.53;0.43;;;;;;;;;;4438140;28;20048;-63
2021/07/05 01:58:28;;;;;;;1.83;0.50;;;;;;;;;;4502973;28;20034;-63
2021/07/05 02:00:41;;;;;;;1.37;0.50;;;;;;;;;;4485089;28;20049;-64
2021/07/05 02:02:54;;;;;;;1.73;0.60;;;;;;;;;;4438671;28;20059;-63
2021/07/05 02:05:09;;;;;;;0.77;0.50;;;;;;;;;;4503092;28;20034;-63
2021/07/05 02:07:20;;;;;;;0.63;0.45;;;;;;;;;;4501323;28;20033;-63
2021/07/05 02:09:31;;;;;;;1.13;0.57;;;;;;;;;;4503668;28;21046;-63
2021/07/05 02:11:41;;;;;;;4.53;0.60;;;;;;;;;;4441701;28;20040;-63
2021/07/05 02:13:52;;;;;;;1.37;0.40;;;;;;;;;;4505926;28;20043;-63
2021/07/05 02:16:03;;;;;;;1.75;0.50;;;;;;;;;;4500091;28;20471;-63
2021/07/05 02:18:14;;;;;;;1.52;0.50;;;;;;;;;;4441670;28;20035;-63
2021/07/05 02:20:26;;;;;;;0.75;0.50;;;;;;;;;;4499755;28;20045;-63
2021/07/05 02:22:37;;;;;;;1.30;0.45;;;;;;;;;;4517009;28;20038;-63
2021/07/05 02:24:47;;;;;;;1.40;0.40;;;;;;;;;;4444310;28;20032;-62
2021/07/05 02:26:58;;;;;;;1.50;0.57;;;;;;;;;;4447161;28;20166;-64
2021/07/05 02:29:08;;;;;;;0.90;0.70;;;;;;;;;;4437911;28;21413;-63
2021/07/05 02:31:18;;;;;;;1.47;0.30;;;;;;;;;;4445172;28;20500;-63
2021/07/05 02:33:31;;;;;;;1.60;0.43;;;;;;;;;;4436380;28;20031;-63
2021/07/05 02:35:42;;;;;;;1.13;0.32;;;;;;;;;;4437956;28;20039;-63
2021/07/05 02:37:54;;;;;;;0.77;0.40;;;;;;;;;;4500364;28;20048;-63
2021/07/05 02:40:10;;;;;;;0.40;0.40;;;;;;;;;;4499134;28;20034;-63
2021/07/05 02:42:20;;;;;;;1.75;0.40;;;;;;;;;;4502181;28;20030;-63
2021/07/05 02:44:31;;;;;;;0.43;0.40;;;;;;;;;;4441909;28;20039;-63
2021/07/05 02:46:42;;;;;;;1.13;0.40;;;;;;;;;;4438398;28;20054;-63
2021/07/05 02:48:52;;;;;;;0.30;0.30;;;;;;;;;;4484443;28;20069;-63
2021/07/05 02:51:05;;;;;;;0.60;0.37;;;;;;;;;;4446735;28;20044;-63
2021/07/05 02:53:15;;;;;;;1.20;0.40;;;;;;;;;;4438163;28;20135;-62
2021/07/05 02:55:26;;;;;;;0.30;0.30;;;;;;;;;;4440298;28;20041;-63
2021/07/05 02:57:37;;;;;;;1.15;0.40;;;;;;;;;;4498021;28;20552;-63
2021/07/05 02:59:48;;;;;;;1.48;0.30;;;;;;;;;;4438130;28;20063;-62
2021/07/05 03:01:58;;;;;;;0.30;0.30;;;;;;;;;;4440691;28;20119;-63
2021/07/05 03:04:09;;;;;;;0.93;0.50;;;;;;;;;;4442937;28;20504;-63
2021/07/05 03:06:20;;;;;;;0.30;0.30;;;;;;;;;;4496391;28;20577;-63
2021/07/05 03:08:30;;;;;;;1.00;0.38;;;;;;;;;;4501515;28;21330;-63
2021/07/05 03:10:42;;;;;;;0.30;0.30;;;;;;;;;;4443102;28;20054;-63
2021/07/05 03:12:53;;;;;;;1.23;0.30;;;;;;;;;;4499145;28;20113;-62
2021/07/05 03:15:08;;;;;;;2.17;0.70;;;;;;;;;;4499883;28;20105;-62
2021/07/05 03:17:19;;;;;;;0.50;0.40;;;;;;;;;;4436944;28;20597;-62
2021/07/05 03:19:30;;;;;;;0.90;0.60;;;;;;;;;;4439392;28;20070;-62
2021/07/05 03:21:40;;;;;;;1.30;0.50;;;;;;;;;;4434942;28;20036;-62
2021/07/05 03:23:51;;;;;;;1.83;0.50;;;;;;;;;;4500153;28;20030;-62
2021/07/05 03:26:01;;;;;;;0.60;0.50;;;;;;;;;;4496988;28;20041;-63
2021/07/05 03:28:16;;;;;;;2.13;0.53;;;;;;;;;;4500980;28;20145;-62
2021/07/05 03:30:28;;;;;;;0.60;0.50;;;;;;;;;;4500791;28;20164;-62
2021/07/05 03:32:39;;;;;;;1.25;0.47;;;;;;;;;;4499271;28;20040;-62
2021/07/05 03:34:50;;;;;;;0.98;0.50;;;;;;;;;;4504951;28;20037;-62
2021/07/05 03:37:00;;;;;;;0.53;0.50;;;;;;;;;;4505070;28;20042;-62
2021/07/05 03:39:11;;;;;;;1.17;0.60;;;;;;;;;;4439815;28;20075;-62
2021/07/05 03:41:21;;;;;;;1.43;0.60;;;;;;;;;;4503210;28;20029;-62
2021/07/05 03:43:32;;;;;;;3.37;0.77;;;;;;;;;;4435694;28;20040;-62
2021/07/05 03:45:42;;;;;;;1.10;0.57;;;;;;;;;;4438962;28;20036;-63
2021/07/05 03:47:54;;;;;;;0.90;0.60;;;;;;;;;;4438035;28;20131;-62
2021/07/05 03:50:06;;;;;;;1.60;0.70;;;;;;;;;;4437658;28;20251;-62
2021/07/05 03:52:17;;;;;;;2.70;0.68;;;;;;;;;;4497124;28;20122;-62
2021/07/05 03:54:27;;;;;;;0.95;0.50;;;;;;;;;;4501169;28;20923;-62
2021/07/05 03:56:38;;;;;;;1.13;0.57;;;;;;;;;;4490268;28;20029;-62
2021/07/05 03:58:48;;;;;;;1.60;0.40;;;;;;;;;;4497987;28;20037;-62
2021/07/05 04:01:00;;;;;;;1.07;0.60;;;;;;;;;;4498094;28;20104;-61
2021/07/05 04:03:10;;;;;;;0.30;0.30;;;;;;;;;;4487830;28;20030;-62
2021/07/05 04:05:21;;;;;;;1.27;0.60;;;;;;;;;;4443056;28;20063;-62
2021/07/05 04:07:31;;;;;;;1.07;0.50;;;;;;;;;;4436272;28;20024;-62
2021/07/05 04:09:42;;;;;;;0.97;0.47;;;;;;;;;;4484629;28;20038;-62
2021/07/05 04:11:53;;;;;;;0.80;0.50;;;;;;;;;;4498743;28;20116;-62
2021/07/05 04:14:03;;;;;;;1.77;0.80;;;;;;;;;;4447680;28;20031;-62
2021/07/05 04:16:14;;;;;;;1.10;0.60;;;;;;;;;;4500136;28;20045;-63
2021/07/05 04:18:24;;;;;;;1.37;0.50;;;;;;;;;;4440693;28;20127;-62
2021/07/05 04:20:35;;;;;;;0.73;0.53;;;;;;;;;;4441100;28;20417;-62
2021/07/05 04:22:46;;;;;;;0.82;0.40;;;;;;;;;;4499417;28;20164;-62
2021/07/05 04:24:56;;;;;;;1.83;0.50;;;;;;;;;;4441036;28;20163;-62
2021/07/05 04:27:07;;;;;;;3.43;0.50;;;;;;;;;;4496660;28;20477;-62
2021/07/05 04:29:18;;;;;;;0.40;0.40;;;;;;;;;;4501161;28;20066;-62
2021/07/05 04:31:28;;;;;;;1.33;0.57;;;;;;;;;;4503887;28;20101;-62
2021/07/05 04:33:38;;;;;;;0.83;0.60;;;;;;;;;;4438828;28;20378;-62
2021/07/05 04:35:49;;;;;;;1.50;0.63;;;;;;;;;;4439829;28;20099;-62
2021/07/05 04:38:00;;;;;;;2.20;0.57;;;;;;;;;;4497818;28;20510;-63
2021/07/05 04:40:16;;;;;;;1.55;0.65;;;;;;;;;;4443235;28;20042;-62
2021/07/05 04:42:27;;;;;;;2.30;0.60;;;;;;;;;;4437950;28;20143;-62
2021/07/05 04:44:37;;;;;;;1.53;0.70;;;;;;;;;;4434783;28;20130;-62
2021/07/05 04:46:49;;;;;;;1.20;0.60;;;;;;;;;;4440016;28;20111;-62
2021/07/05 04:48:59;;;;;;;0.88;0.40;;;;;;;;;;4437798;28;20039;-62
2021/07/05 04:51:13;;;;;;;0.60;0.50;;;;;;;;;;4502037;28;20046;-63
2021/07/05 04:53:24;;;;;;;0.50;0.50;;;;;;;;;;4432221;28;20077;-62
2021/07/05 04:55:34;;;;;;;2.70;0.60;;;;;;;;;;4448990;28;20042;-62
2021/07/05 04:57:46;;;;;;;0.67;0.50;;;;;;;;;;4441940;28;20038;-62
2021/07/05 04:59:56;;;;;;;1.48;0.50;;;;;;;;;;4501016;28;20036;-62
2021/07/05 05:02:07;;;;;;;0.70;0.50;;;;;;;;;;4438064;28;20517;-62
2021/07/05 05:04:17;;;;;;;1.83;0.50;;;;;;;;;;4504482;28;20045;-62
2021/07/05 05:06:28;;;;;;;0.60;0.50;;;;;;;;;;4503922;28;20045;-62
2021/07/05 05:08:38;;;;;;;1.00;0.50;;;;;;;;;;4437483;28;20260;-63
2021/07/05 05:10:49;;;;;;;4.23;0.70;;;;;;;;;;4438995;28;20507;-62
2021/07/05 05:12:59;;;;;;;2.00;0.50;;;;;;;;;;4434003;28;20039;-62
2021/07/05 05:15:10;;;;;;;0.60;0.33;;;;;;;;;;4438474;28;21230;-62
2021/07/05 05:17:21;;;;;;;2.38;0.70;;;;;;;;;;4483817;28;20117;-63
2021/07/05 05:19:31;;;;;;;0.50;0.50;;;;;;;;;;4442604;28;20047;-62
2021/07/05 05:21:42;;;;;;;1.33;0.40;;;;;;;;;;4436939;28;20032;-62
2021/07/05 05:23:52;;;;;;;0.40;0.40;;;;;;;;;;4444378;28;21194;-62
2021/07/05 05:26:02;;;;;;;1.70;0.40;;;;;;;;;;4442479;28;20066;-62
2021/07/05 05:28:13;;;;;;;0.60;0.40;;;;;;;;;;4446549;28;20039;-62
2021/07/05 05:30:25;;;;;;;2.77;0.80;;;;;;;;;;4501419;28;20116;-62
2021/07/05 05:32:35;;;;;;;1.05;0.63;;;;;;;;;;4438702;28;20069;-62
2021/07/05 05:34:46;;;;;;;0.57;0.57;;;;;;;;;;4439516;28;20039;-62
2021/07/05 05:36:57;;;;;;;1.05;0.70;;;;;;;;;;4443810;28;20133;-62
2021/07/05 05:39:07;;;;;;;1.23;0.60;;;;;;;;;;4439307;28;20435;-62
2021/07/05 05:41:17;;;;;;;1.03;0.40;;;;;;;;;;4440048;28;20443;-62
2021/07/05 05:43:28;;;;;;;0.77;0.70;;;;;;;;;;4438494;28;20526;-62
2021/07/05 05:45:38;;;;;;;0.90;0.50;;;;;;;;;;4505565;28;20033;-63
2021/07/05 05:47:49;;;;;;;0.40;0.40;;;;;;;;;;4438148;28;20042;-62
2021/07/05 05:50:00;;;;;;;0.40;0.40;;;;;;;;;;4441532;28;20036;-62
2021/07/05 05:52:10;;;;;;;1.10;0.40;;;;;;;;;;4439569;28;20485;-63
2021/07/05 05:54:20;;;;;;;1.83;0.67;;;;;;;;;;4437333;28;20044;-62
2021/07/05 05:56:32;;;;;;;1.67;0.40;;;;;;;;;;4437269;28;20437;-62
2021/07/05 05:58:43;;;;;;;1.88;0.90;;;;;;;;;;4435344;28;20051;-62
2021/07/05 06:00:53;;;;;;;0.57;0.40;;;;;;;;;;4502327;28;20036;-63
2021/07/05 06:03:04;;;;;;;1.57;0.50;;;;;;;;;;4442722;28;20035;-62
2021/07/05 06:05:14;;;;;;;1.13;0.60;;;;;;;;;;4503116;28;20426;-62
2021/07/05 06:07:25;;;;;;;0.80;0.50;;;;;;;;;;4499492;28;20034;-62
2021/07/05 06:09:35;;;;;;;0.37;0.37;;;;;;;;;;4516884;28;20529;-62
2021/07/05 06:11:46;;;;;;;1.63;0.60;;;;;;;;;;4437868;28;20036;-62
2021/07/05 06:13:56;;;;;;;0.53;0.53;;;;;;;;;;4438500;28;20043;-62
2021/07/05 06:16:07;;;;;;;2.00;0.53;;;;;;;;;;4440257;28;20555;-62
2021/07/05 06:18:17;;;;;;;0.63;0.50;;;;;;;;;;4500587;28;20093;-62
2021/07/05 06:20:28;;;;;;;1.50;0.60;;;;;;;;;;4440438;28;20286;-62
2021/07/05 06:22:46;;;;;;;1.15;0.50;;;;;;;;;;4439565;28;20035;-63
2021/07/05 06:24:57;;;;;;;0.38;0.38;;;;;;;;;;4497746;28;20038;-62
2021/07/05 06:27:08;;;;;;;1.23;0.60;;;;;;;;;;4498230;28;20081;-63
2021/07/05 06:29:18;;;;;;;0.47;0.47;;;;;;;;;;4443075;28;20043;-62
2021/07/05 06:31:30;;;;;;;1.17;0.53;;;;;;;;;;4439960;28;20067;-62
2021/07/05 06:33:40;;;;;;;0.82;0.50;;;;;;;;;;4446151;28;20036;-62
2021/07/05 06:35:51;;;;;;;1.30;0.50;;;;;;;;;;4500586;28;20038;-62
2021/07/05 06:38:02;;;;;;;0.57;0.47;;;;;;;;;;4437908;28;20051;-62
2021/07/05 06:40:12;;;;;;;0.50;0.50;;;;;;;;;;4502228;28;20120;-62
2021/07/05 06:42:23;;;;;;;0.50;0.50;;;;;;;;;;4438776;28;20311;-62
2021/07/05 06:44:33;;;;;;;2.30;0.60;;;;;;;;;;4520142;28;20033;-62
2021/07/05 06:46:43;;;;;;;0.57;0.47;;;;;;;;;;4441246;28;20031;-63
2021/07/05 06:48:54;;;;;;;0.80;0.50;;;;;;;;;;4475477;28;20144;-63
2021/07/05 06:51:04;;;;;;;1.33;0.50;;;;;;;;;;4438055;28;20047;-63
2021/07/05 06:53:15;;;;;;;0.40;0.40;;;;;;;;;;4437831;28;20036;-63
2021/07/05 06:55:26;;;;;;;0.73;0.63;;;;;;;;;;4439082;28;20480;-63
2021/07/05 06:57:37;;;;;;;0.47;0.40;;;;;;;;;;4498684;28;20037;-64
2021/07/05 06:59:47;;;;;;;0.55;0.55;;;;;;;;;;4442001;28;20051;-63
2021/07/05 07:01:58;;;;;;;0.50;0.50;;;;;;;;;;4516768;28;20037;-63
2021/07/05 07:04:08;;;;;;;1.23;0.60;;;;;;;;;;4438237;28;20044;-63
2021/07/05 07:06:19;;;;;;;0.80;0.50;;;;;;;;;;4440291;28;25432;-63
2021/07/05 07:08:29;;;;;;;1.00;0.40;;;;;;;;;;4439029;28;20032;-63
2021/07/05 07:10:40;;;;;;;0.40;0.40;;;;;;;;;;4498048;28;20510;-63
2021/07/05 07:12:52;;;;;;;0.73;0.33;;;;;;;;;;4504885;28;20033;-63
2021/07/05 07:15:08;;;;;;;0.43;0.38;;;;;;;;;;4499280;28;20037;-63
2021/07/05 07:17:24;;;;;;;0.75;0.40;;;;;;;;;;4440701;28;20067;-63
2021/07/05 07:19:34;;;;;;;0.40;0.40;;;;;;;;;;4436477;28;20044;-64
2021/07/05 07:21:47;;;;;;;0.40;0.40;;;;;;;;;;4442850;28;20047;-63
2021/07/05 07:23:57;;;;;;;0.43;0.35;;;;;;;;;;4502161;28;20160;-64
2021/07/05 07:26:07;;;;;;;0.50;0.50;;;;;;;;;;4438246;28;20537;-63
2021/07/05 07:28:18;;;;;;;0.43;0.40;;;;;;;;;;4440689;28;20182;-61
2021/07/05 07:30:28;;;;;;;0.40;0.37;;;;;;;;;;4517490;28;20036;-63
2021/07/05 07:32:40;;;;;;;0.60;0.50;;;;;;;;;;4438226;28;20092;-63
2021/07/05 07:34:50;;;;;;;0.43;0.30;;;;;;;;;;4439814;28;20185;-63
2021/07/05 07:37:05;;;;;;;1.00;0.60;;;;;;;;;;4435627;28;20047;-61
2021/07/05 07:39:25;;;;;;;0.68;0.47;;;;;;;;;;4437822;28;20046;-61
2021/07/05 07:41:35;;;;;;;0.73;0.47;;;;;;;;;;4440790;28;20192;-60
2021/07/05 07:43:46;;;;;;;0.70;0.40;;;;;;;;;;4438643;28;20119;-60
2021/07/05 07:45:56;;;;;;;0.40;0.37;;;;;;;;;;4446723;28;20135;-62
2021/07/05 07:48:06;;;;;;;0.40;0.40;;;;;;;;;;4440040;28;20040;-61
2021/07/05 07:50:18;;;;;;;0.57;0.30;;;;;;;;;;4445729;28;20105;-61
2021/07/05 07:52:29;;;;;;;0.65;0.40;;;;;;;;;;4500851;28;20120;-61
2021/07/05 07:54:39;;;;;;;0.53;0.30;;;;;;;;;;4436856;28;20102;-62
2021/07/05 07:56:50;;;;;;;0.40;0.30;;;;;;;;;;4438867;28;20064;-66
2021/07/05 07:59:02;;;;;;;0.40;0.40;;;;;;;;;;4499011;28;20034;-59
2021/07/05 08:01:13;;;;;;;0.32;0.30;;;;;;;;;;4437302;28;20036;-62
2021/07/05 08:03:23;;;;;;;0.30;0.30;;;;;;;;;;4500634;28;20038;-59
2021/07/05 08:05:35;;;;;;;1.07;0.40;;;;;;;;;;4446592;28;20389;-60
2021/07/05 08:07:45;;;;;;;0.60;0.40;;;;;;;;;;4440600;28;20682;-59
2021/07/05 08:09:56;;;;;;;0.67;0.50;;;;;;;;;;4498923;28;20128;-60
2021/07/05 08:12:08;;;;;;;0.50;0.30;;;;;;;;;;4442403;28;20039;-59
2021/07/05 08:14:18;;;;;;;0.30;0.30;;;;;;;;;;4442443;28;20471;-60
2021/07/05 08:16:29;;;;;;;0.30;0.30;;;;;;;;;;4451380;28;20040;-60
2021/07/05 08:18:40;;;;;;;0.45;0.40;;;;;;;;;;4499180;28;20104;-58
2021/07/05 08:20:51;;;;;;;0.55;0.40;;;;;;;;;;4438233;28;20075;-60
2021/07/05 08:23:02;;;;;;;0.55;0.50;;;;;;;;;;4498620;28;20125;-60
2021/07/05 08:25:13;;;;;;;0.28;0.28;;;;;;;;;;4438297;28;20046;-59
2021/07/05 08:27:23;;;;;;;0.40;0.40;;;;;;;;;;4436738;28;20035;-57
2021/07/05 08:29:34;;;;;;;0.77;0.40;;;;;;;;;;4436426;28;20097;-57
2021/07/05 08:31:44;;;;;;;0.30;0.30;;;;;;;;;;4447137;28;20036;-57
2021/07/05 08:33:55;;;;;;;0.30;0.30;;;;;;;;;;4438371;28;20032;-58
2021/07/05 08:36:06;;;;;;;0.40;0.40;;;;;;;;;;4450030;28;20366;-58
2021/07/05 08:38:16;;;;;;;0.43;0.43;;;;;;;;;;4505730;28;20041;-59
2021/07/05 08:40:27;;;;;;;0.70;0.47;;;;;;;;;;4469362;28;20109;-58
2021/07/05 08:42:38;;;;;;;0.60;0.40;;;;;;;;;;4438521;28;20033;-57
2021/07/05 08:44:49;;;;;;;0.30;0.30;;;;;;;;;;4505996;28;20038;-58
2021/07/05 08:47:01;;;;;;;0.40;0.40;;;;;;;;;;4444127;28;20046;-58
2021/07/05 08:49:12;;;;;;;0.30;0.30;;;;;;;;;;4445764;28;20035;-57
2021/07/05 08:51:23;;;;;;;0.32;0.32;;;;;;;;;;4443901;28;20492;-58
2021/07/05 08:53:34;;;;;;;0.38;0.38;;;;;;;;;;4444696;28;20090;-58
2021/07/05 08:55:44;;;;;;;0.30;0.30;;;;;;;;;;4500488;28;20173;-56
2021/07/05 08:57:55;;;;;;;0.30;0.30;;;;;;;;;;4447007;28;20043;-58
2021/07/05 09:00:10;;;;;;;0.85;0.40;;;;;;;;;;4437703;28;20035;-58
2021/07/05 09:02:21;;;;;;;0.32;0.32;;;;;;;;;;4440009;28;20516;-58
2021/07/05 09:04:33;;;;;;;0.30;0.30;;;;;;;;;;4504340;28;20140;-59
2021/07/05 09:07:03;;;;;;;0.30;0.30;;;;;;;;;;4442624;28;20109;-60
2021/07/05 09:09:14;;;;;;;0.40;0.40;;;;;;;;;;4442986;28;20040;-60
2021/07/05 09:11:48;;;;;;;0.67;0.30;;;;;;;;;;4441873;28;20047;-60
2021/07/05 09:13:59;;;;;;;0.35;0.30;;;;;;;;;;4437682;28;20043;-61
2021/07/05 09:16:09;;;;;;;0.30;0.30;;;;;;;;;;4439390;28;20027;-61
2021/07/05 09:18:43;;;;;;;0.60;0.50;;;;;;;;;;4438423;28;20039;-61
2021/07/05 09:20:58;;;;;;;0.32;0.32;;;;;;;;;;4443250;28;20035;-61
2021/07/05 09:23:09;;;;;;;0.30;0.30;;;;;;;;;;4505138;28;20141;-62
2021/07/05 09:25:33;;;;;;;0.25;0.25;;;;;;;;;;4499481;28;20284;-62
2021/07/05 09:27:44;;;;;;;0.95;0.47;;;;;;;;;;4437307;28;20035;-62
2021/07/05 09:30:07;;;;;;;0.43;0.37;;;;;;;;;;4436900;28;20059;-61
2021/07/05 09:32:29;;;;;;;0.90;0.38;;;;;;;;;;4441497;28;20085;-61
2021/07/05 09:34:42;;;;;;;0.40;0.40;;;;;;;;;;4439698;28;20380;-62
2021/07/05 09:36:55;;;;;;;0.45;0.40;;;;;;;;;;4500438;28;20045;-62
2021/07/05 09:39:11;;;;;;;0.47;0.40;;;;;;;;;;4501023;28;20030;-61
2021/07/05 09:41:27;;;;;;;0.32;0.32;;;;;;;;;;4502020;28;20597;-62
2021/07/05 09:43:41;;;;;;;0.30;0.30;;;;;;;;;;4444668;28;20735;-60
2021/07/05 09:45:52;;;;;;;0.60;0.40;;;;;;;;;;4443089;28;20067;-61
2021/07/05 09:48:16;;;;;;;;;;;;;;;;;;4442992;28;20033;-61
2021/07/05 09:50:33;;;;;;;0.38;0.30;;;;;;;;;;4501912;28;19928;-61
2021/07/05 09:52:44;;;;;;;0.20;0.20;;;;;;;;;;4437251;28;20039;-61
2021/07/05 09:54:56;;;;;;;0.55;0.40;;;;;;;;;;4436950;28;20051;-61
2021/07/05 09:57:25;;;;;;;0.30;0.30;;;;;;;;;;4443441;28;20040;-61
2021/07/05 09:59:40;;;;;;;0.25;0.25;;;;;;;;;;4438342;28;20052;-61
2021/07/05 10:01:53;;;;;;;0.45;0.40;;;;;;;;;;4434713;28;20075;-61
2021/07/05 10:04:22;;;;;;;0.30;0.30;;;;;;;;;;4498882;28;20077;-61
2021/07/05 10:06:44;;;;;;;1.35;0.40;;;;;;;;;;4441426;28;20578;-61
2021/07/05 10:08:55;;;;;;;0.75;0.40;;;;;;;;;;4501419;28;20132;-61
2021/07/05 10:11:06;;;;;;;0.90;0.70;;;;;;;;;;4445469;28;20179;-61
2021/07/05 10:13:19;;;;;;;0.40;0.40;;;;;;;;;;4444821;28;20046;-61
2021/07/05 10:15:31;;;;;;;0.50;0.50;;;;;;;;;;4438187;28;20028;-61
2021/07/05 10:17:46;;;;;;;0.63;0.60;;;;;;;;;;4487459;28;20041;-61
2021/07/05 10:19:57;;;;;;;0.40;0.40;;;;;;;;;;4442572;28;20035;-61
2021/07/05 10:22:11;;;;;;;0.40;0.40;;;;;;;;;;4514276;28;20029;-61
2021/07/05 10:24:21;;;;;;;0.60;0.60;;;;;;;;;;4439653;28;20647;-61
2021/07/05 10:26:33;;;;;;;0.50;0.50;;;;;;;;;;4505161;28;20116;-61
2021/07/05 10:28:43;;;;;;;0.40;0.40;;;;;;;;;;4501480;28;20064;-61
2021/07/05 10:30:54;;;;;;;1.00;0.50;;;;;;;;;;4443477;28;20055;-61
2021/07/05 10:33:05;;;;;;;0.77;0.50;;;;;;;;;;4439486;28;20032;-61
2021/07/05 10:35:20;;;;;;;1.02;0.52;;;;;;;;;;4438917;28;20036;-61
2021/07/05 10:37:42;;;;;;;0.40;0.40;;;;;;;;;;4441172;28;20550;-62
2021/07/05 10:39:53;;;;;;;0.50;0.50;;;;;;;;;;4475415;28;20530;-61
2021/07/05 10:42:27;;;;;;;0.45;0.32;;;;;;;;;;4485641;28;20569;-61
2021/07/05 10:44:43;;;;;;;0.43;0.43;;;;;;;;;;4435260;28;20039;-62
2021/07/05 10:46:54;;;;;;;1.75;0.60;;;;;;;;;;4439814;28;20077;-62
2021/07/05 10:49:09;;;;;;;0.52;0.52;;;;;;;;;;4441855;28;20037;-62
2021/07/05 10:51:22;;;;;;;0.80;0.50;;;;;;;;;;4499286;28;20040;-62
2021/07/05 10:53:32;;;;;;;1.65;0.60;;;;;;;;;;4499752;28;20037;-61
2021/07/05 10:55:51;;;;;;;1.10;0.70;;;;;;;;;;4445132;28;20044;-61
2021/07/05 10:58:03;;;;;;;0.88;0.70;;;;;;;;;;4502958;28;20131;-61
2021/07/05 11:00:19;;;;;;;1.17;0.80;;;;;;;;;;4504282;28;20077;-61
2021/07/05 11:02:56;;;;;;;1.55;0.80;;;;;;;;;;4500653;28;20159;-62
2021/07/05 11:05:29;;;;;;;0.60;0.60;;;;;;;;;;4437068;28;20075;-62
2021/07/05 11:07:42;;;;;;;0.80;0.68;;;;;;;;;;4438282;28;20627;-62
2021/07/05 11:09:55;;;;;;;0.50;0.50;;;;;;;;;;4501754;28;20042;-62
2021/07/05 11:12:05;;;;;;;0.98;0.60;;;;;;;;;;4486997;28;20102;-61
2021/07/05 11:14:23;;;;;;;0.83;0.60;;;;;;;;;;4487086;28;20087;-61
2021/07/05 11:16:59;;;;;;;0.85;0.50;;;;;;;;;;4502569;28;20637;-61
2021/07/05 11:19:10;;;;;;;1.17;0.68;;;;;;;;;;4444332;28;20642;-61
2021/07/05 11:21:23;;;;;;;1.90;0.80;;;;;;;;;;4499081;28;20265;-61
2021/07/05 11:24:10;;;;;;;1.50;0.68;;;;;;;;;;4439452;28;20071;-61
2021/07/05 11:26:22;;;;;;;1.40;0.68;;;;;;;;;;4483860;28;20673;-61
2021/07/05 11:28:32;;;;;;;0.98;0.65;;;;;;;;;;4451900;28;20858;-61
2021/07/05 11:30:46;;;;;;;1.57;0.70;;;;;;;;;;4499510;28;20143;-61
2021/07/05 11:33:21;;;;;;;0.60;0.60;;;;;;;;;;4437741;28;20050;-61
2021/07/05 11:35:44;;;;;;;1.25;0.63;;;;;;;;;;4499173;28;20037;-61
2021/07/05 11:37:56;;;;;;;1.27;0.70;;;;;;;;;;4499792;28;20034;-61
2021/07/05 11:40:07;;;;;;;1.05;0.70;;;;;;;;;;4439432;28;20042;-61
2021/07/05 11:42:42;;;;;;;0.73;0.50;;;;;;;;;;4441917;28;20036;-61
2021/07/05 11:44:56;;;;;;;1.88;0.60;;;;;;;;;;4503053;28;20628;-61
2021/07/05 11:47:07;;;;;;;1.58;0.60;;;;;;;;;;4437720;28;20044;-61
2021/07/05 11:49:24;;;;;;;0.60;0.50;;;;;;;;;;4446673;28;20035;-61
2021/07/05 11:51:39;;;;;;;0.93;0.60;;;;;;;;;;4498593;28;20120;-64
2021/07/05 11:53:56;;;;;;;1.83;0.80;;;;;;;;;;4437044;28;20606;-63
2021/07/05 11:56:06;;;;;;;1.05;0.60;;;;;;;;;;4439714;28;20255;-63
2021/07/05 11:58:17;;;;;;;0.97;0.77;;;;;;;;;;4437993;28;20047;-62
2021/07/05 12:00:38;;;;;;;1.57;0.60;;;;;;;;;;4437044;28;20370;-62
2021/07/05 12:03:04;;;;;;;1.65;0.73;;;;;;;;;;4441855;28;20088;-62
2021/07/05 12:05:14;;;;;;;0.80;0.60;;;;;;;;;;4439783;28;20040;-62
2021/07/05 12:07:25;;;;;;;0.73;0.60;;;;;;;;;;4437041;28;20036;-62
2021/07/05 12:09:37;;;;;;;1.00;0.60;;;;;;;;;;4440158;28;20043;-63
2021/07/05 12:11:48;;;;;;;2.15;0.88;;;;;;;;;;4441516;28;20617;-62
2021/07/05 12:14:06;;;;;;;1.50;0.73;;;;;;;;;;4516862;28;20025;-62
2021/07/05 12:16:26;;;;;;;1.25;0.68;;;;;;;;;;4436279;28;20051;-63
2021/07/05 12:18:39;;;;;;;1.10;0.60;;;;;;;;;;4494196;28;20037;-63
2021/07/05 12:21:00;;;;;;;2.38;1.00;;;;;;;;;;4440043;28;20039;-63
2021/07/05 12:23:14;;;;;;;5.05;3.97;;;;;;;;;;4499234;28;20665;-63
2021/07/05 12:25:24;;;;;;;2.13;1.35;;;;;;;;;;4502879;28;20034;-63
2021/07/05 12:27:35;;;;;;;0.87;0.70;;;;;;;;;;4437144;28;20065;-63
2021/07/05 12:29:56;;;;;;;1.83;0.60;;;;;;;;;;4441974;28;20039;-63
2021/07/05 12:32:15;;;;;;;1.02;0.60;;;;;;;;;;4438907;28;20042;-63
2021/07/05 12:34:38;;;;;;;0.95;0.55;;;;;;;;;;4436514;28;20036;-63
2021/07/05 12:36:48;;;;;;;1.40;0.60;;;;;;;;;;4437553;28;20042;-63
2021/07/05 12:39:08;;;;;;;1.70;0.67;;;;;;;;;;4437161;28;20047;-62
2021/07/05 12:41:27;;;;;;;0.73;0.60;;;;;;;;;;4500204;28;20042;-63
2021/07/05 12:43:38;;;;;;;1.17;0.70;;;;;;;;;;4515079;28;20152;-63
2021/07/05 12:45:53;;;;;;;1.97;0.87;;;;;;;;;;4498993;28;20030;-63
2021/07/05 12:48:17;;;;;;;1.05;0.60;;;;;;;;;;4436455;28;20119;-63
2021/07/05 12:50:34;;;;;;;2.00;0.80;;;;;;;;;;4442868;28;20043;-63
2021/07/05 12:53:13;;;;;;;1.27;0.80;;;;;;;;;;4433534;28;20156;-62
2021/07/05 12:55:24;;;;;;;1.25;0.65;;;;;;;;;;4497644;28;20046;-62
2021/07/05 12:57:34;;;;;;;1.07;0.70;;;;;;;;;;4444064;28;20550;-62
2021/07/05 13:00:03;;;;;;;0.80;0.70;;;;;;;;;;4440389;28;20123;-63
2021/07/05 13:02:24;;;;;;;3.33;0.80;;;;;;;;;;4436740;28;20035;-63
2021/07/05 13:04:35;;;;;;;0.98;0.70;;;;;;;;;;4438662;28;20810;-63
2021/07/05 13:06:48;;;;;;;0.60;0.60;;;;;;;;;;4501335;28;20085;-63
2021/07/05 13:09:03;;;;;;;2.15;1.00;;;;;;;;;;4442260;28;20035;-64
2021/07/05 13:11:16;;;;;;;1.08;0.70;;;;;;;;;;4439035;28;20044;-63
2021/07/05 13:13:35;;;;;;;1.95;0.80;;;;;;;;;;4498611;28;20167;-63
2021/07/05 13:15:47;;;;;;;2.33;0.93;;;;;;;;;;4443321;28;20027;-63